sensor_id;sensor_type;location;lat;lon;timestamp;P1;durP1;ratioP1;P2;durP2;ratioP2
46339;SDS011;47273;49.274;8.708;2022-12-18T05:03:00;15.70;;;9.52;;
46339;SDS011;47273;49.274;8.708;2022-12-18T05:05:27;27.92;;;11.70;;
46339;SDS011;47273;49.274;8.708;2022-12-18T05:07:52;31.17;;;11.77;;
46339;SDS011;47273;49.274;8.708;2022-12-18T05:10:18;22.30;;;9.43;;
46339;SDS011;47273;49.274;8.708;2022-12-18T05:12:44;20.05;;;9.60;;
46339;SDS011;47273;49.274;8.708;2022-12-18T05:15:31;17.42;;;10.35;;
46339;SDS011;47273;49.274;8.708;2022-12-18T05:17:58;23.08;;;8.50;;
46339;SDS011;47273;49.274;8.708;2022-12-18T05:20:24;22.35;;;12.02;;
46339;SDS011;47273;49.274;8.708;2022-12-18T05:22:50;17.15;;;7.95;;
46339;SDS011;47273;49.274;8.708;2022-12-18T05:25:16;26.30;;;9.80;;
46339;SDS011;47273;49.274;8.708;2022-12-18T05:27:42;29.90;;;11.07;;
46339;SDS011;47273;49.274;8.708;2022-12-18T05:30:09;31.77;;;10.68;;
46339;SDS011;47273;49.274;8.708;2022-12-18T05:32:35;24.42;;;10.10;;
46339;SDS011;47273;49.274;8.708;2022-12-18T05:35:01;32.35;;;12.98;;
46339;SDS011;47273;49.274;8.708;2022-12-18T05:37:27;30.02;;;10.35;;
46339;SDS011;47273;49.274;8.708;2022-12-18T05:39:52;25.98;;;11.50;;
46339;SDS011;47273;49.274;8.708;2022-12-18T05:42:18;46.22;;;11.60;;
46339;SDS011;47273;49.274;8.708;2022-12-18T05:44:44;31.77;;;13.18;;
46339;SDS011;47273;49.274;8.708;2022-12-18T05:47:09;21.05;;;9.57;;
46339;SDS011;47273;49.274;8.708;2022-12-18T05:49:35;40.42;;;13.23;;
46339;SDS011;47273;49.274;8.708;2022-12-18T05:52:00;29.02;;;11.95;;
46339;SDS011;47273;49.274;8.708;2022-12-18T05:54:27;29.52;;;11.30;;
46339;SDS011;47273;49.274;8.708;2022-12-18T05:56:53;19.33;;;11.02;;
46339;SDS011;47273;49.274;8.708;2022-12-18T05:59:28;29.48;;;11.95;;
46339;SDS011;47273;49.274;8.708;2022-12-18T06:01:53;28.10;;;13.77;;
46339;SDS011;47273;49.274;8.708;2022-12-18T06:04:19;37.95;;;12.98;;
46339;SDS011;47273;49.274;8.708;2022-12-18T06:06:45;25.83;;;9.65;;
46339;SDS011;47273;49.274;8.708;2022-12-18T06:09:10;28.52;;;13.82;;
46339;SDS011;47273;49.274;8.708;2022-12-18T06:11:37;27.88;;;12.80;;
46339;SDS011;47273;49.274;8.708;2022-12-18T06:14:04;32.50;;;12.25;;
46339;SDS011;47273;49.274;8.708;2022-12-18T06:16:30;32.40;;;12.35;;
46339;SDS011;47273;49.274;8.708;2022-12-18T06:18:57;42.95;;;15.43;;
46339;SDS011;47273;49.274;8.708;2022-12-18T06:21:23;30.38;;;12.27;;
46339;SDS011;47273;49.274;8.708;2022-12-18T06:23:49;22.85;;;9.73;;
46339;SDS011;47273;49.274;8.708;2022-12-18T06:26:15;42.90;;;13.05;;
46339;SDS011;47273;49.274;8.708;2022-12-18T06:28:40;25.65;;;10.05;;
46339;SDS011;47273;49.274;8.708;2022-12-18T06:31:06;27.20;;;12.25;;
46339;SDS011;47273;49.274;8.708;2022-12-18T06:33:33;33.70;;;15.05;;
46339;SDS011;47273;49.274;8.708;2022-12-18T06:36:00;29.50;;;13.20;;
46339;SDS011;47273;49.274;8.708;2022-12-18T06:38:27;26.15;;;11.98;;
46339;SDS011;47273;49.274;8.708;2022-12-18T06:40:52;23.58;;;9.90;;
46339;SDS011;47273;49.274;8.708;2022-12-18T06:43:18;38.10;;;14.73;;
46339;SDS011;47273;49.274;8.708;2022-12-18T06:45:44;23.60;;;10.07;;
46339;SDS011;47273;49.274;8.708;2022-12-18T06:48:09;25.83;;;12.82;;
46339;SDS011;47273;49.274;8.708;2022-12-18T06:50:35;32.10;;;11.50;;
46339;SDS011;47273;49.274;8.708;2022-12-18T06:53:00;39.75;;;13.48;;
46339;SDS011;47273;49.274;8.708;2022-12-18T06:55:26;23.65;;;12.48;;
46339;SDS011;47273;49.274;8.708;2022-12-18T06:57:52;24.50;;;12.00;;
46339;SDS011;47273;49.274;8.708;2022-12-18T07:00:17;23.42;;;10.82;;
46339;SDS011;47273;49.274;8.708;2022-12-18T07:02:43;21.00;;;11.40;;
46339;SDS011;47273;49.274;8.708;2022-12-18T07:05:09;37.72;;;13.68;;
46339;SDS011;47273;49.274;8.708;2022-12-18T07:07:34;32.15;;;12.80;;
46339;SDS011;47273;49.274;8.708;2022-12-18T07:10:00;29.50;;;13.82;;
46339;SDS011;47273;49.274;8.708;2022-12-18T07:12:26;30.60;;;15.25;;
46339;SDS011;47273;49.274;8.708;2022-12-18T07:14:52;32.22;;;13.52;;
46339;SDS011;47273;49.274;8.708;2022-12-18T07:17:18;38.03;;;13.07;;
46339;SDS011;47273;49.274;8.708;2022-12-18T07:19:43;34.60;;;15.77;;
46339;SDS011;47273;49.274;8.708;2022-12-18T07:22:09;36.20;;;18.30;;
46339;SDS011;47273;49.274;8.708;2022-12-18T07:24:35;51.88;;;16.40;;
46339;SDS011;47273;49.274;8.708;2022-12-18T07:27:00;37.42;;;11.50;;
46339;SDS011;47273;49.274;8.708;2022-12-18T07:29:26;37.13;;;13.50;;
46339;SDS011;47273;49.274;8.708;2022-12-18T07:31:51;33.63;;;12.00;;
46339;SDS011;47273;49.274;8.708;2022-12-18T07:34:17;28.00;;;12.77;;
46339;SDS011;47273;49.274;8.708;2022-12-18T07:36:43;25.20;;;12.00;;
46339;SDS011;47273;49.274;8.708;2022-12-18T07:39:10;29.83;;;11.50;;
46339;SDS011;47273;49.274;8.708;2022-12-18T07:41:35;40.42;;;15.20;;
46339;SDS011;47273;49.274;8.708;2022-12-18T07:44:01;36.15;;;14.98;;
46339;SDS011;47273;49.274;8.708;2022-12-18T07:46:27;22.75;;;10.85;;
46339;SDS011;47273;49.274;8.708;2022-12-18T07:48:52;41.08;;;14.20;;
46339;SDS011;47273;49.274;8.708;2022-12-18T07:51:18;39.10;;;13.20;;
46339;SDS011;47273;49.274;8.708;2022-12-18T07:53:44;27.90;;;10.23;;
46339;SDS011;47273;49.274;8.708;2022-12-18T07:56:10;30.92;;;12.05;;
46339;SDS011;47273;49.274;8.708;2022-12-18T08:01:13;27.50;;;12.68;;
46339;SDS011;47273;49.274;8.708;2022-12-18T08:03:39;30.60;;;11.65;;
46339;SDS011;47273;49.274;8.708;2022-12-18T08:06:06;24.65;;;10.45;;
46339;SDS011;47273;49.274;8.708;2022-12-18T08:08:33;30.38;;;11.95;;
46339;SDS011;47273;49.274;8.708;2022-12-18T08:11:00;39.95;;;11.88;;
46339;SDS011;47273;49.274;8.708;2022-12-18T08:13:26;27.67;;;13.32;;
46339;SDS011;47273;49.274;8.708;2022-12-18T08:15:56;35.83;;;13.90;;
46339;SDS011;47273;49.274;8.708;2022-12-18T08:18:26;28.50;;;11.18;;
46339;SDS011;47273;49.274;8.708;2022-12-18T08:20:52;33.35;;;14.50;;
46339;SDS011;47273;49.274;8.708;2022-12-18T08:23:18;38.45;;;13.57;;
46339;SDS011;47273;49.274;8.708;2022-12-18T08:25:45;30.45;;;12.38;;
46339;SDS011;47273;49.274;8.708;2022-12-18T08:28:11;30.70;;;12.07;;
46339;SDS011;47273;49.274;8.708;2022-12-18T08:30:36;31.40;;;12.98;;
46339;SDS011;47273;49.274;8.708;2022-12-18T08:33:02;31.58;;;12.68;;
46339;SDS011;47273;49.274;8.708;2022-12-18T08:35:28;28.85;;;11.55;;
46339;SDS011;47273;49.274;8.708;2022-12-18T08:37:53;34.30;;;12.55;;
46339;SDS011;47273;49.274;8.708;2022-12-18T08:40:19;25.98;;;12.05;;
46339;SDS011;47273;49.274;8.708;2022-12-18T08:42:45;54.92;;;17.75;;
46339;SDS011;47273;49.274;8.708;2022-12-18T08:45:29;28.45;;;12.50;;
46339;SDS011;47273;49.274;8.708;2022-12-18T08:47:54;30.70;;;16.27;;
46339;SDS011;47273;49.274;8.708;2022-12-18T08:50:20;51.75;;;19.88;;
46339;SDS011;47273;49.274;8.708;2022-12-18T08:52:46;52.00;;;15.75;;
46339;SDS011;47273;49.274;8.708;2022-12-18T08:55:11;43.58;;;15.10;;
46339;SDS011;47273;49.274;8.708;2022-12-18T08:57:37;43.90;;;13.10;;
46339;SDS011;47273;49.274;8.708;2022-12-18T09:00:03;31.23;;;13.75;;
46339;SDS011;47273;49.274;8.708;2022-12-18T09:02:29;37.50;;;15.10;;
46339;SDS011;47273;49.274;8.708;2022-12-18T09:04:55;35.80;;;13.30;;
46339;SDS011;47273;49.274;8.708;2022-12-18T09:07:20;38.17;;;14.73;;
46339;SDS011;47273;49.274;8.708;2022-12-18T09:09:46;35.65;;;13.82;;
46339;SDS011;47273;49.274;8.708;2022-12-18T09:12:12;51.67;;;18.90;;
46339;SDS011;47273;49.274;8.708;2022-12-18T09:14:37;47.72;;;18.05;;
46339;SDS011;47273;49.274;8.708;2022-12-18T09:17:03;41.20;;;16.05;;
46339;SDS011;47273;49.274;8.708;2022-12-18T09:19:29;37.00;;;13.63;;
46339;SDS011;47273;49.274;8.708;2022-12-18T09:21:54;38.03;;;16.38;;
46339;SDS011;47273;49.274;8.708;2022-12-18T09:24:20;49.22;;;19.27;;
46339;SDS011;47273;49.274;8.708;2022-12-18T09:26:46;41.15;;;19.30;;
46339;SDS011;47273;49.274;8.708;2022-12-18T09:29:11;49.05;;;17.73;;
46339;SDS011;47273;49.274;8.708;2022-12-18T09:31:37;40.47;;;15.93;;
46339;SDS011;47273;49.274;8.708;2022-12-18T09:34:03;38.55;;;16.40;;
46339;SDS011;47273;49.274;8.708;2022-12-18T09:36:29;46.33;;;17.40;;
46339;SDS011;47273;49.274;8.708;2022-12-18T09:38:54;41.83;;;15.77;;
46339;SDS011;47273;49.274;8.708;2022-12-18T09:41:40;33.55;;;15.20;;
46339;SDS011;47273;49.274;8.708;2022-12-18T09:44:28;41.38;;;15.68;;
46339;SDS011;47273;49.274;8.708;2022-12-18T09:49:46;33.75;;;12.45;;
46339;SDS011;47273;49.274;8.708;2022-12-18T09:52:20;35.63;;;14.02;;
46339;SDS011;47273;49.274;8.708;2022-12-18T09:55:00;30.98;;;12.65;;
46339;SDS011;47273;49.274;8.708;2022-12-18T09:57:42;40.85;;;13.85;;
46339;SDS011;47273;49.274;8.708;2022-12-18T10:00:18;37.70;;;15.20;;
46339;SDS011;47273;49.274;8.708;2022-12-18T10:02:46;32.00;;;12.98;;
46339;SDS011;47273;49.274;8.708;2022-12-18T10:10:38;40.67;;;14.05;;
46339;SDS011;47273;49.274;8.708;2022-12-18T10:13:16;46.92;;;17.85;;
46339;SDS011;47273;49.274;8.708;2022-12-18T10:16:13;39.67;;;16.42;;
46339;SDS011;47273;49.274;8.708;2022-12-18T10:21:32;54.50;;;15.98;;
46339;SDS011;47273;49.274;8.708;2022-12-18T10:27:33;37.42;;;13.93;;
46339;SDS011;47273;49.274;8.708;2022-12-18T10:29:59;46.55;;;18.92;;
46339;SDS011;47273;49.274;8.708;2022-12-18T10:32:29;40.88;;;15.63;;
46339;SDS011;47273;49.274;8.708;2022-12-18T10:34:56;48.95;;;16.30;;
46339;SDS011;47273;49.274;8.708;2022-12-18T10:37:23;45.08;;;15.75;;
46339;SDS011;47273;49.274;8.708;2022-12-18T10:40:07;38.25;;;15.98;;
46339;SDS011;47273;49.274;8.708;2022-12-18T10:45:09;48.75;;;19.08;;
46339;SDS011;47273;49.274;8.708;2022-12-18T10:47:36;51.15;;;18.50;;
46339;SDS011;47273;49.274;8.708;2022-12-18T10:50:16;40.78;;;16.52;;
46339;SDS011;47273;49.274;8.708;2022-12-18T10:52:44;38.30;;;15.20;;
46339;SDS011;47273;49.274;8.708;2022-12-18T10:55:35;42.05;;;15.70;;
46339;SDS011;47273;49.274;8.708;2022-12-18T10:58:15;42.78;;;16.30;;
46339;SDS011;47273;49.274;8.708;2022-12-18T11:01:12;45.08;;;16.95;;
46339;SDS011;47273;49.274;8.708;2022-12-18T11:06:17;42.28;;;14.27;;
46339;SDS011;47273;49.274;8.708;2022-12-18T11:09:32;43.55;;;15.55;;
46339;SDS011;47273;49.274;8.708;2022-12-18T11:11:52;39.30;;;15.40;;
46339;SDS011;47273;49.274;8.708;2022-12-18T11:15:13;44.17;;;14.35;;
46339;SDS011;47273;49.274;8.708;2022-12-18T11:17:17;41.80;;;14.63;;
46339;SDS011;47273;49.274;8.708;2022-12-18T11:19:43;36.05;;;13.40;;
46339;SDS011;47273;49.274;8.708;2022-12-18T11:22:19;39.63;;;12.98;;
46339;SDS011;47273;49.274;8.708;2022-12-18T11:25:12;38.83;;;13.48;;
46339;SDS011;47273;49.274;8.708;2022-12-18T11:27:47;36.28;;;14.00;;
46339;SDS011;47273;49.274;8.708;2022-12-18T11:30:23;41.22;;;14.40;;
46339;SDS011;47273;49.274;8.708;2022-12-18T11:33:10;46.17;;;15.60;;
46339;SDS011;47273;49.274;8.708;2022-12-18T11:38:24;38.85;;;13.43;;
46339;SDS011;47273;49.274;8.708;2022-12-18T11:43:25;47.97;;;14.93;;
46339;SDS011;47273;49.274;8.708;2022-12-18T11:46:10;39.17;;;13.68;;
46339;SDS011;47273;49.274;8.708;2022-12-18T11:48:49;38.70;;;12.75;;
46339;SDS011;47273;49.274;8.708;2022-12-18T11:51:28;40.13;;;13.02;;
46339;SDS011;47273;49.274;8.708;2022-12-18T11:54:00;44.63;;;14.20;;
46339;SDS011;47273;49.274;8.708;2022-12-18T11:56:31;41.85;;;14.57;;
46339;SDS011;47273;49.274;8.708;2022-12-18T12:01:42;40.70;;;14.43;;
46339;SDS011;47273;49.274;8.708;2022-12-18T12:07:21;44.55;;;14.80;;
46339;SDS011;47273;49.274;8.708;2022-12-18T12:13:05;41.58;;;15.15;;
46339;SDS011;47273;49.274;8.708;2022-12-18T12:20:50;46.92;;;16.10;;
46339;SDS011;47273;49.274;8.708;2022-12-18T12:25:58;33.17;;;13.88;;
46339;SDS011;47273;49.274;8.708;2022-12-18T12:39:35;46.50;;;16.25;;
46339;SDS011;47273;49.274;8.708;2022-12-18T12:42:04;46.53;;;17.77;;
46339;SDS011;47273;49.274;8.708;2022-12-18T12:44:54;59.78;;;19.38;;
46339;SDS011;47273;49.274;8.708;2022-12-18T12:47:32;41.33;;;15.30;;
46339;SDS011;47273;49.274;8.708;2022-12-18T12:50:02;54.28;;;16.38;;
46339;SDS011;47273;49.274;8.708;2022-12-18T12:52:35;47.92;;;16.60;;
46339;SDS011;47273;49.274;8.708;2022-12-18T12:58:23;45.80;;;14.93;;
46339;SDS011;47273;49.274;8.708;2022-12-18T13:00:49;44.75;;;13.57;;
46339;SDS011;47273;49.274;8.708;2022-12-18T13:05:55;43.63;;;16.08;;
46339;SDS011;47273;49.274;8.708;2022-12-18T13:08:28;42.35;;;14.90;;
46339;SDS011;47273;49.274;8.708;2022-12-18T13:10:59;46.45;;;16.45;;
46339;SDS011;47273;49.274;8.708;2022-12-18T13:13:50;43.25;;;14.70;;
46339;SDS011;47273;49.274;8.708;2022-12-18T13:16:19;40.88;;;13.82;;
46339;SDS011;47273;49.274;8.708;2022-12-18T13:18:50;42.40;;;14.85;;
46339;SDS011;47273;49.274;8.708;2022-12-18T13:21:29;42.05;;;15.27;;
46339;SDS011;47273;49.274;8.708;2022-12-18T13:23:57;47.63;;;13.73;;
46339;SDS011;47273;49.274;8.708;2022-12-18T13:26:48;47.42;;;14.10;;
46339;SDS011;47273;49.274;8.708;2022-12-18T13:29:17;45.55;;;13.98;;
46339;SDS011;47273;49.274;8.708;2022-12-18T13:32:17;45.00;;;13.55;;
46339;SDS011;47273;49.274;8.708;2022-12-18T13:34:46;38.08;;;14.00;;
46339;SDS011;47273;49.274;8.708;2022-12-18T13:39:56;49.33;;;13.93;;
46339;SDS011;47273;49.274;8.708;2022-12-18T13:42:34;37.70;;;12.75;;
46339;SDS011;47273;49.274;8.708;2022-12-18T13:45:38;45.72;;;13.20;;
46339;SDS011;47273;49.274;8.708;2022-12-18T13:48:19;40.50;;;13.18;;
46339;SDS011;47273;49.274;8.708;2022-12-18T13:51:06;40.63;;;13.57;;
46339;SDS011;47273;49.274;8.708;2022-12-18T13:53:50;40.00;;;13.27;;
46339;SDS011;47273;49.274;8.708;2022-12-18T13:56:21;44.63;;;14.80;;
46339;SDS011;47273;49.274;8.708;2022-12-18T14:01:43;38.42;;;12.68;;
46339;SDS011;47273;49.274;8.708;2022-12-18T14:04:16;47.88;;;16.15;;
46339;SDS011;47273;49.274;8.708;2022-12-18T14:06:45;58.58;;;16.10;;
46339;SDS011;47273;49.274;8.708;2022-12-18T14:09:15;42.65;;;14.43;;
46339;SDS011;47273;49.274;8.708;2022-12-18T14:11:48;61.25;;;19.00;;
46339;SDS011;47273;49.274;8.708;2022-12-18T14:14:16;74.80;;;22.38;;
46339;SDS011;47273;49.274;8.708;2022-12-18T14:16:43;49.67;;;18.08;;
46339;SDS011;47273;49.274;8.708;2022-12-18T14:19:14;49.53;;;15.77;;
46339;SDS011;47273;49.274;8.708;2022-12-18T14:21:45;49.90;;;14.45;;
46339;SDS011;47273;49.274;8.708;2022-12-18T14:24:16;50.28;;;15.25;;
46339;SDS011;47273;49.274;8.708;2022-12-18T14:26:47;39.90;;;14.02;;
46339;SDS011;47273;49.274;8.708;2022-12-18T14:29:26;47.20;;;15.63;;
46339;SDS011;47273;49.274;8.708;2022-12-18T14:32:13;41.45;;;14.90;;
46339;SDS011;47273;49.274;8.708;2022-12-18T14:34:50;49.25;;;14.57;;
46339;SDS011;47273;49.274;8.708;2022-12-18T14:37:22;47.95;;;17.70;;
46339;SDS011;47273;49.274;8.708;2022-12-18T14:39:56;43.50;;;16.50;;
46339;SDS011;47273;49.274;8.708;2022-12-18T14:42:24;51.38;;;18.80;;
46339;SDS011;47273;49.274;8.708;2022-12-18T14:45:18;49.88;;;16.77;;
46339;SDS011;47273;49.274;8.708;2022-12-18T14:47:57;35.25;;;15.07;;
46339;SDS011;47273;49.274;8.708;2022-12-18T14:50:23;42.50;;;15.65;;
46339;SDS011;47273;49.274;8.708;2022-12-18T14:52:49;54.92;;;17.17;;
46339;SDS011;47273;49.274;8.708;2022-12-18T14:55:18;57.08;;;15.90;;
46339;SDS011;47273;49.274;8.708;2022-12-18T14:57:45;53.83;;;17.00;;
46339;SDS011;47273;49.274;8.708;2022-12-18T15:00:18;48.83;;;15.98;;
46339;SDS011;47273;49.274;8.708;2022-12-18T15:02:46;50.08;;;18.02;;
46339;SDS011;47273;49.274;8.708;2022-12-18T15:05:20;55.28;;;19.02;;
46339;SDS011;47273;49.274;8.708;2022-12-18T15:07:54;43.13;;;18.70;;
46339;SDS011;47273;49.274;8.708;2022-12-18T15:10:23;48.42;;;17.48;;
46339;SDS011;47273;49.274;8.708;2022-12-18T15:18:11;41.63;;;13.73;;
46339;SDS011;47273;49.274;8.708;2022-12-18T15:23:23;50.95;;;18.85;;
46339;SDS011;47273;49.274;8.708;2022-12-18T15:26:08;40.20;;;14.30;;
46339;SDS011;47273;49.274;8.708;2022-12-18T15:36:13;42.47;;;15.00;;
46339;SDS011;47273;49.274;8.708;2022-12-18T15:38:41;44.30;;;14.88;;
46339;SDS011;47273;49.274;8.708;2022-12-18T15:41:12;41.20;;;14.55;;
46339;SDS011;47273;49.274;8.708;2022-12-18T15:43:39;44.17;;;16.00;;
46339;SDS011;47273;49.274;8.708;2022-12-18T15:46:09;37.70;;;13.98;;
46339;SDS011;47273;49.274;8.708;2022-12-18T15:48:42;46.45;;;15.20;;
46339;SDS011;47273;49.274;8.708;2022-12-18T15:51:19;33.08;;;13.75;;
46339;SDS011;47273;49.274;8.708;2022-12-18T15:53:52;36.95;;;13.38;;
46339;SDS011;47273;49.274;8.708;2022-12-18T15:56:20;39.97;;;14.70;;
46339;SDS011;47273;49.274;8.708;2022-12-18T15:59:11;45.60;;;13.60;;
46339;SDS011;47273;49.274;8.708;2022-12-18T16:01:38;48.35;;;16.90;;
46339;SDS011;47273;49.274;8.708;2022-12-18T16:04:04;46.92;;;18.75;;
46339;SDS011;47273;49.274;8.708;2022-12-18T16:06:30;75.38;;;23.67;;
46339;SDS011;47273;49.274;8.708;2022-12-18T16:08:56;59.30;;;18.92;;
46339;SDS011;47273;49.274;8.708;2022-12-18T16:17:03;79.95;;;22.98;;
46339;SDS011;47273;49.274;8.708;2022-12-18T16:19:30;46.40;;;19.35;;
46339;SDS011;47273;49.274;8.708;2022-12-18T16:21:57;64.43;;;26.90;;
46339;SDS011;47273;49.274;8.708;2022-12-18T16:24:24;58.95;;;24.10;;
46339;SDS011;47273;49.274;8.708;2022-12-18T16:26:51;41.22;;;15.15;;
46339;SDS011;47273;49.274;8.708;2022-12-18T16:29:18;54.92;;;18.85;;
46339;SDS011;47273;49.274;8.708;2022-12-18T16:31:49;41.47;;;16.70;;
46339;SDS011;47273;49.274;8.708;2022-12-18T16:36:48;43.78;;;17.70;;
46339;SDS011;47273;49.274;8.708;2022-12-18T16:39:14;54.03;;;19.70;;
46339;SDS011;47273;49.274;8.708;2022-12-18T16:41:41;42.58;;;15.43;;
46339;SDS011;47273;49.274;8.708;2022-12-18T16:44:07;43.70;;;16.33;;
46339;SDS011;47273;49.274;8.708;2022-12-18T16:46:32;55.90;;;22.35;;
46339;SDS011;47273;49.274;8.708;2022-12-18T16:48:58;48.67;;;18.83;;
46339;SDS011;47273;49.274;8.708;2022-12-18T16:51:25;43.88;;;17.67;;
46339;SDS011;47273;49.274;8.708;2022-12-18T16:53:52;50.50;;;16.05;;
46339;SDS011;47273;49.274;8.708;2022-12-18T16:56:19;45.50;;;14.82;;
46339;SDS011;47273;49.274;8.708;2022-12-18T16:58:55;47.28;;;15.77;;
46339;SDS011;47273;49.274;8.708;2022-12-18T17:01:23;38.85;;;14.18;;
46339;SDS011;47273;49.274;8.708;2022-12-18T17:03:53;38.55;;;14.02;;
46339;SDS011;47273;49.274;8.708;2022-12-18T17:06:20;38.30;;;14.65;;
46339;SDS011;47273;49.274;8.708;2022-12-18T17:08:59;37.17;;;13.27;;
46339;SDS011;47273;49.274;8.708;2022-12-18T17:11:28;50.50;;;15.95;;
46339;SDS011;47273;49.274;8.708;2022-12-18T17:13:55;46.88;;;14.43;;
46339;SDS011;47273;49.274;8.708;2022-12-18T17:16:22;44.45;;;16.02;;
46339;SDS011;47273;49.274;8.708;2022-12-18T17:18:48;63.35;;;20.67;;
46339;SDS011;47273;49.274;8.708;2022-12-18T17:21:14;78.32;;;25.25;;
46339;SDS011;47273;49.274;8.708;2022-12-18T17:23:41;51.65;;;18.15;;
46339;SDS011;47273;49.274;8.708;2022-12-18T17:26:08;34.00;;;13.90;;
46339;SDS011;47273;49.274;8.708;2022-12-18T17:28:34;39.22;;;14.30;;
46339;SDS011;47273;49.274;8.708;2022-12-18T17:31:01;42.22;;;16.05;;
46339;SDS011;47273;49.274;8.708;2022-12-18T17:33:35;51.08;;;15.20;;
46339;SDS011;47273;49.274;8.708;2022-12-18T17:36:01;47.05;;;13.25;;
46339;SDS011;47273;49.274;8.708;2022-12-18T17:38:27;37.97;;;14.93;;
46339;SDS011;47273;49.274;8.708;2022-12-18T17:40:52;42.72;;;15.07;;
46339;SDS011;47273;49.274;8.708;2022-12-18T17:43:18;48.10;;;17.13;;
46339;SDS011;47273;49.274;8.708;2022-12-18T17:45:43;52.25;;;17.52;;
46339;SDS011;47273;49.274;8.708;2022-12-18T17:48:09;48.88;;;17.58;;
46339;SDS011;47273;49.274;8.708;2022-12-18T17:50:35;51.95;;;17.33;;
46339;SDS011;47273;49.274;8.708;2022-12-18T17:53:01;44.72;;;14.80;;
46339;SDS011;47273;49.274;8.708;2022-12-18T17:55:27;48.80;;;17.83;;
46339;SDS011;47273;49.274;8.708;2022-12-18T17:57:53;33.35;;;13.55;;
46339;SDS011;47273;49.274;8.708;2022-12-18T18:00:18;41.92;;;13.00;;
46339;SDS011;47273;49.274;8.708;2022-12-18T18:02:45;44.45;;;14.95;;
46339;SDS011;47273;49.274;8.708;2022-12-18T18:05:11;44.33;;;15.85;;
46339;SDS011;47273;49.274;8.708;2022-12-18T18:07:37;39.35;;;14.75;;
46339;SDS011;47273;49.274;8.708;2022-12-18T18:10:04;32.38;;;13.40;;
46339;SDS011;47273;49.274;8.708;2022-12-18T18:12:30;37.47;;;13.82;;
46339;SDS011;47273;49.274;8.708;2022-12-18T18:15:14;41.05;;;15.73;;
46339;SDS011;47273;49.274;8.708;2022-12-18T18:17:40;52.65;;;18.35;;
46339;SDS011;47273;49.274;8.708;2022-12-18T18:20:06;56.63;;;17.42;;
46339;SDS011;47273;49.274;8.708;2022-12-18T18:22:32;48.70;;;17.35;;
46339;SDS011;47273;49.274;8.708;2022-12-18T18:24:58;59.05;;;20.05;;
46339;SDS011;47273;49.274;8.708;2022-12-18T18:27:24;43.78;;;19.75;;
46339;SDS011;47273;49.274;8.708;2022-12-18T18:29:50;48.22;;;18.70;;
46339;SDS011;47273;49.274;8.708;2022-12-18T18:32:15;40.15;;;17.13;;
46339;SDS011;47273;49.274;8.708;2022-12-18T18:34:41;40.97;;;16.20;;
46339;SDS011;47273;49.274;8.708;2022-12-18T18:37:08;54.67;;;18.00;;
46339;SDS011;47273;49.274;8.708;2022-12-18T18:39:34;45.08;;;18.55;;
46339;SDS011;47273;49.274;8.708;2022-12-18T18:42:00;44.33;;;14.95;;
46339;SDS011;47273;49.274;8.708;2022-12-18T18:44:26;38.70;;;16.42;;
46339;SDS011;47273;49.274;8.708;2022-12-18T18:46:55;41.47;;;17.75;;
46339;SDS011;47273;49.274;8.708;2022-12-18T18:49:22;52.65;;;21.17;;
46339;SDS011;47273;49.274;8.708;2022-12-18T18:51:50;56.50;;;22.48;;
46339;SDS011;47273;49.274;8.708;2022-12-18T18:54:17;51.45;;;23.33;;
46339;SDS011;47273;49.274;8.708;2022-12-18T18:56:43;55.20;;;19.80;;
46339;SDS011;47273;49.274;8.708;2022-12-18T18:59:08;34.60;;;16.38;;
46339;SDS011;47273;49.274;8.708;2022-12-18T19:01:34;39.05;;;15.35;;
46339;SDS011;47273;49.274;8.708;2022-12-18T19:04:00;36.47;;;14.77;;
46339;SDS011;47273;49.274;8.708;2022-12-18T19:06:26;50.25;;;15.98;;
46339;SDS011;47273;49.274;8.708;2022-12-18T19:08:53;37.28;;;14.77;;
46339;SDS011;47273;49.274;8.708;2022-12-18T19:11:19;35.35;;;13.68;;
46339;SDS011;47273;49.274;8.708;2022-12-18T19:14:06;38.50;;;16.77;;
46339;SDS011;47273;49.274;8.708;2022-12-18T19:16:33;42.45;;;16.70;;
46339;SDS011;47273;49.274;8.708;2022-12-18T19:18:59;52.88;;;18.55;;
46339;SDS011;47273;49.274;8.708;2022-12-18T19:21:25;37.20;;;15.82;;
46339;SDS011;47273;49.274;8.708;2022-12-18T19:23:50;38.78;;;12.95;;
46339;SDS011;47273;49.274;8.708;2022-12-18T19:26:17;37.00;;;14.65;;
46339;SDS011;47273;49.274;8.708;2022-12-18T19:28:43;57.03;;;17.58;;
46339;SDS011;47273;49.274;8.708;2022-12-18T19:31:10;37.08;;;13.90;;
46339;SDS011;47273;49.274;8.708;2022-12-18T19:33:38;37.88;;;15.70;;
46339;SDS011;47273;49.274;8.708;2022-12-18T19:36:12;39.38;;;16.23;;
46339;SDS011;47273;49.274;8.708;2022-12-18T19:38:38;49.10;;;16.40;;
46339;SDS011;47273;49.274;8.708;2022-12-18T19:41:05;40.33;;;14.38;;
46339;SDS011;47273;49.274;8.708;2022-12-18T19:43:32;35.42;;;13.43;;
46339;SDS011;47273;49.274;8.708;2022-12-18T19:46:00;37.17;;;13.40;;
46339;SDS011;47273;49.274;8.708;2022-12-18T19:48:26;37.67;;;14.93;;
46339;SDS011;47273;49.274;8.708;2022-12-18T19:50:52;39.85;;;13.88;;
46339;SDS011;47273;49.274;8.708;2022-12-18T19:53:18;51.30;;;15.35;;
46339;SDS011;47273;49.274;8.708;2022-12-18T19:55:44;41.65;;;14.77;;
46339;SDS011;47273;49.274;8.708;2022-12-18T19:58:09;38.10;;;13.27;;
46339;SDS011;47273;49.274;8.708;2022-12-18T20:00:35;38.15;;;12.98;;
46339;SDS011;47273;49.274;8.708;2022-12-18T20:03:01;37.78;;;13.52;;
46339;SDS011;47273;49.274;8.708;2022-12-18T20:05:27;40.22;;;14.95;;
46339;SDS011;47273;49.274;8.708;2022-12-18T20:07:53;38.53;;;14.00;;
46339;SDS011;47273;49.274;8.708;2022-12-18T20:10:19;41.55;;;14.45;;
46339;SDS011;47273;49.274;8.708;2022-12-18T20:12:45;44.35;;;14.50;;
46339;SDS011;47273;49.274;8.708;2022-12-18T20:15:10;41.65;;;12.70;;
46339;SDS011;47273;49.274;8.708;2022-12-18T20:17:36;33.03;;;13.05;;
46339;SDS011;47273;49.274;8.708;2022-12-18T20:20:02;47.25;;;13.43;;
46339;SDS011;47273;49.274;8.708;2022-12-18T20:22:29;39.65;;;16.73;;
46339;SDS011;47273;49.274;8.708;2022-12-18T20:24:54;45.88;;;15.60;;
46339;SDS011;47273;49.274;8.708;2022-12-18T20:27:20;37.40;;;13.40;;
46339;SDS011;47273;49.274;8.708;2022-12-18T20:29:46;39.30;;;11.48;;
46339;SDS011;47273;49.274;8.708;2022-12-18T20:32:12;34.65;;;11.52;;
46339;SDS011;47273;49.274;8.708;2022-12-18T20:34:38;39.83;;;13.45;;
46339;SDS011;47273;49.274;8.708;2022-12-18T20:37:04;40.67;;;13.82;;
46339;SDS011;47273;49.274;8.708;2022-12-18T20:39:30;40.75;;;15.27;;
46339;SDS011;47273;49.274;8.708;2022-12-18T20:41:55;35.08;;;13.27;;
46339;SDS011;47273;49.274;8.708;2022-12-18T20:44:21;33.00;;;13.20;;
46339;SDS011;47273;49.274;8.708;2022-12-18T20:46:47;42.30;;;14.65;;
46339;SDS011;47273;49.274;8.708;2022-12-18T20:49:58;29.52;;;12.00;;
46339;SDS011;47273;49.274;8.708;2022-12-18T20:52:05;33.78;;;13.02;;
46339;SDS011;47273;49.274;8.708;2022-12-18T20:54:30;53.17;;;15.55;;
46339;SDS011;47273;49.274;8.708;2022-12-18T20:56:56;39.67;;;14.70;;
46339;SDS011;47273;49.274;8.708;2022-12-18T20:59:22;41.47;;;13.23;;
46339;SDS011;47273;49.274;8.708;2022-12-18T21:01:49;40.83;;;13.45;;
46339;SDS011;47273;49.274;8.708;2022-12-18T21:04:19;41.88;;;13.32;;
46339;SDS011;47273;49.274;8.708;2022-12-18T21:06:46;33.63;;;12.27;;